Ballina, New South Wales

3:57 AM AEST on July 06, 2015 (GMT +1000)
East Ballina Angels beach | | Change Station
CLOSE
Current Station
Personal Weather Station
Location: East Ballina, NEW SOUTH WALES
Elevation: 39 ft
Nearby Weather Stations

Elev 39 ft 28.85 °S, 153.59 °E | Updated 13 seconds ago

Clear
Clear
51.1 °F
Feels Like 51.1 °F
N
0.0
Wind Variable Wind from WNW
Gusts 0.0 mph

Today
High -- | Low -- °F
--% Chance of Precip.
Yesterday
High -- | Low -- °F
Precip. -- in
6:39 AM 5:01 PM
Waning Gibbous, 83% visible
Pressure 30.06 in
Visibility 5.6 miles
Clouds
Dew Point 49 °F
Humidity 91%
Rainfall 0.00 in
Snow Depth Not available.
UV 0.0 out of 12
Pollen Not available.
Air Quality Not available.
Flu Activity Not available.
SPECI YLIS 051734Z AUTO 01008KT 9000 // NCD 07/07 Q1018

More Conditions Fewer Conditions

Pressure 30.06 in
Visibility 5.6 miles
Clouds
Dew Point 49 °F
Humidity 91%
Rainfall 0.00 in
Snow Depth Not available.
UV 0.0 out of 12
Pollen Not available.
Air Quality Not available.
Flu Activity Not available.
SPECI YLIS 051734Z AUTO 01008KT 9000 // NCD 07/07 Q1018

More Conditions Fewer Conditions

10-Day Weather Forecast

×

Almanac

Astronomy

Jul. 06, 2015 Rise Set
Actual Time
Civil Twilight
Nautical Twilight
Astronomical Twilight
Moon
Length of Visible Light
Length of Day
Tomorrow will be .
, % of the Moon is Illuminated

Today's Extremes

Country Highs Country Lows

Community

WunderPhotos

Upload Photos

1,835,327 photos uploaded!

WunderBlogs® & News

Nearby

Air Quality

  Air Quality AQ Index Pollutant
Not available.

Snow Depth

Station Depth Elevation

Earthquake Activity

City Distance Mag. Time & Date
Minimum magnitude displayed is 2.5.

Coastal Water Temperatures

Place Temperature

Stations

Nearby Weather Stations

Station Location Temp. Windchill Dew Point Humidity Wind Precip. Elev Updated Type